Time;durP1;ratioP1;P1;durP2;ratioP2;P2;SDS_P1;SDS_P2;PMS_P1;PMS_P2;Temp;Humidity;BMP_temperature;BMP_pressure;BME280_temperature;BME280_humidity;BME280_pressure;Samples;Min_cycle;Max_cycle;Signal;HPM_P1;HPM_P2
2022/05/23 00:00:14;;;;;;;5.35;1.88;;;14.40;99.90;;;;;;5034704;28;20103;-79
2022/05/23 00:02:39;;;;;;;7.68;2.00;;;14.40;99.90;;;;;;5034817;28;20053;-79
2022/05/23 00:05:06;;;;;;;6.10;1.90;;;14.30;99.90;;;;;;5034758;28;20049;-80
2022/05/23 00:07:35;;;;;;;5.40;1.90;;;14.20;99.90;;;;;;5034754;28;20056;-79
2022/05/23 00:10:03;;;;;;;3.75;2.10;;;14.20;99.90;;;;;;5035015;28;20095;-79
2022/05/23 00:12:28;;;;;;;5.93;2.15;;;14.10;99.90;;;;;;5033301;28;20045;-79
2022/05/23 00:14:54;;;;;;;7.35;2.45;;;14.10;99.90;;;;;;5033104;28;20060;-79
2022/05/23 00:17:20;;;;;;;7.95;2.30;;;14.00;99.90;;;;;;5033059;28;20053;-80
2022/05/23 00:19:47;;;;;;;5.85;1.92;;;13.90;99.90;;;;;;5034167;28;20064;-79
2022/05/23 00:22:14;;;;;;;8.38;2.35;;;13.90;99.90;;;;;;5034751;28;20053;-79
2022/05/23 00:24:44;;;;;;;6.40;2.03;;;13.90;99.90;;;;;;5034867;28;20047;-80
2022/05/23 00:27:13;;;;;;;6.13;1.98;;;13.80;99.90;;;;;;5034574;28;20487;-79
2022/05/23 00:29:39;;;;;;;5.30;2.20;;;13.80;99.90;;;;;;5033997;28;20048;-79
2022/05/23 00:37:33;;;;;;;6.65;1.90;;;13.80;99.90;;;;;;5033343;28;20062;-79
2022/05/23 00:39:59;;;;;;;4.30;2.20;;;13.90;99.90;;;;;;5034188;28;20050;-79
2022/05/23 00:45:14;;;;;;;6.25;2.08;;;13.90;99.90;;;;;;5034342;28;20089;-81
2022/05/23 00:47:40;;;;;;;7.55;2.30;;;13.90;99.90;;;;;;5032856;28;20041;-79
2022/05/23 00:50:06;;;;;;;3.45;1.85;;;13.90;99.90;;;;;;5033915;28;20049;-80
2022/05/23 00:52:46;;;;;;;7.15;2.28;;;14.00;99.90;;;;;;5033926;28;20499;-79
2022/05/23 00:55:25;;;;;;;4.43;2.05;;;14.00;99.90;;;;;;5031966;28;20042;-80
2022/05/23 00:57:53;;;;;;;8.05;2.20;;;14.00;99.90;;;;;;5033199;28;20057;-79
2022/05/23 01:00:19;;;;;;;3.45;1.90;;;14.00;99.90;;;;;;5033639;28;20045;-80
2022/05/23 01:02:51;;;;;;;5.93;2.20;;;14.00;99.90;;;;;;5032774;28;20042;-80
2022/05/23 01:05:17;;;;;;;6.10;2.20;;;14.00;99.90;;;;;;5033687;28;20045;-85
2022/05/23 01:07:43;;;;;;;6.93;1.80;;;14.00;99.90;;;;;;5032347;28;20058;-80
2022/05/23 01:10:09;;;;;;;5.18;1.90;;;13.90;99.90;;;;;;5032718;28;20501;-80
2022/05/23 01:12:36;;;;;;;4.03;1.85;;;14.00;99.90;;;;;;5033193;28;20057;-79
2022/05/23 01:15:05;;;;;;;5.65;1.75;;;14.00;99.90;;;;;;5032021;28;20497;-79
2022/05/23 01:17:30;;;;;;;5.70;2.20;;;14.00;99.90;;;;;;5032389;28;20053;-79
2022/05/23 01:19:56;;;;;;;7.57;2.28;;;14.00;99.90;;;;;;5032255;28;20096;-79
2022/05/23 01:23:05;;;;;;;3.30;1.40;;;14.00;99.90;;;;;;5044124;28;20057;-79
2022/05/23 01:25:35;;;;;;;3.08;1.73;;;14.00;99.90;;;;;;5033532;28;20037;-79
2022/05/23 01:28:02;;;;;;;5.50;1.50;;;14.10;99.90;;;;;;5032395;28;20056;-79
2022/05/23 01:30:29;;;;;;;5.68;1.50;;;14.00;99.90;;;;;;5031816;28;20057;-79
2022/05/23 01:32:55;;;;;;;4.47;1.58;;;14.00;99.90;;;;;;5033143;28;20041;-79
2022/05/23 01:35:21;;;;;;;5.53;1.80;;;14.00;99.90;;;;;;5032711;28;20475;-79
2022/05/23 01:37:47;;;;;;;6.03;1.58;;;14.00;99.90;;;;;;5033392;28;20049;-79
2022/05/23 01:40:15;;;;;;;3.63;1.60;;;14.10;99.90;;;;;;5033424;28;20466;-85
2022/05/23 01:42:42;;;;;;;3.17;1.42;;;14.00;99.90;;;;;;5031689;28;20053;-79
2022/05/23 01:45:08;;;;;;;4.10;1.60;;;14.00;99.90;;;;;;5033034;28;20038;-79
2022/05/23 01:47:34;;;;;;;4.30;1.70;;;14.00;99.90;;;;;;5031614;28;20057;-79
2022/05/23 01:50:00;;;;;;;4.43;1.75;;;13.90;99.90;;;;;;5032606;28;20053;-80
2022/05/23 01:52:25;;;;;;;6.32;1.80;;;13.90;99.90;;;;;;5032465;28;20053;-79
2022/05/23 01:54:51;;;;;;;8.45;1.45;;;13.80;99.90;;;;;;5032752;28;20120;-79
2022/05/23 01:57:17;;;;;;;7.32;1.90;;;13.80;99.90;;;;;;5032415;28;20041;-79
2022/05/23 02:02:27;;;;;;;4.05;1.55;;;13.80;99.90;;;;;;5031512;28;20064;-79
2022/05/23 02:04:53;;;;;;;4.65;1.85;;;13.70;99.90;;;;;;5031247;28;20136;-79
2022/05/23 02:07:19;;;;;;;6.35;2.20;;;13.70;99.90;;;;;;5031672;28;20120;-80
2022/05/23 02:09:45;;;;;;;7.85;1.65;;;13.70;99.90;;;;;;5031616;28;20137;-80
2022/05/23 02:12:13;;;;;;;4.50;1.88;;;13.60;99.90;;;;;;5031410;28;20059;-80
2022/05/23 02:14:39;;;;;;;4.90;1.85;;;13.60;99.90;;;;;;5028062;28;20105;-80
2022/05/23 02:17:09;;;;;;;5.78;1.98;;;13.70;99.90;;;;;;5013855;28;20081;-79
2022/05/23 02:19:36;;;;;;;7.40;1.83;;;13.70;99.90;;;;;;5032233;28;20091;-79
2022/05/23 02:22:03;;;;;;;3.67;1.75;;;13.70;99.90;;;;;;5032228;28;20403;-79
2022/05/23 02:24:28;;;;;;;5.13;1.85;;;13.70;99.90;;;;;;5032114;28;20049;-79
2022/05/23 02:26:54;;;;;;;6.68;2.17;;;13.70;99.90;;;;;;5032277;28;20052;-80
2022/05/23 02:29:20;;;;;;;4.55;1.60;;;13.70;99.90;;;;;;5027125;28;20415;-79
2022/05/23 02:31:48;;;;;;;3.25;1.42;;;13.70;99.90;;;;;;5013565;28;20042;-82
2022/05/23 02:34:15;;;;;;;5.63;1.80;;;13.70;99.90;;;;;;5031493;28;20041;-79
2022/05/23 02:36:42;;;;;;;6.03;2.28;;;13.70;99.90;;;;;;5011260;28;20057;-79
2022/05/23 02:39:08;;;;;;;5.15;1.73;;;13.80;99.90;;;;;;5023183;28;20091;-79
2022/05/23 02:41:34;;;;;;;3.65;1.40;;;13.70;99.90;;;;;;5032108;28;20049;-79
2022/05/23 02:44:01;;;;;;;4.80;1.52;;;13.70;99.90;;;;;;5031418;28;20411;-80
2022/05/23 02:46:28;;;;;;;5.55;1.80;;;13.70;99.90;;;;;;5030908;28;20406;-79
2022/05/23 02:48:54;;;;;;;5.53;2.08;;;13.70;99.90;;;;;;5031679;28;20045;-79
2022/05/23 02:51:20;;;;;;;4.88;1.77;;;13.70;99.90;;;;;;5032378;28;20053;-79
2022/05/23 02:53:45;;;;;;;6.68;1.90;;;13.70;99.90;;;;;;5031844;28;20496;-82
2022/05/23 02:56:11;;;;;;;3.95;1.92;;;13.70;99.90;;;;;;5030895;28;20048;-79
2022/05/23 02:58:37;;;;;;;6.70;1.75;;;13.70;99.90;;;;;;5031861;28;20049;-79
2022/05/23 03:01:03;;;;;;;7.15;2.20;;;13.70;99.90;;;;;;5031974;28;20478;-79
2022/05/23 03:03:29;;;;;;;3.10;1.80;;;13.70;99.90;;;;;;5031660;28;20045;-80
2022/05/23 03:05:55;;;;;;;4.95;1.85;;;13.70;99.90;;;;;;5031752;28;20037;-79
2022/05/23 03:08:23;;;;;;;5.35;1.88;;;13.70;99.90;;;;;;5031870;28;20057;-79
2022/05/23 03:10:51;;;;;;;5.47;1.70;;;13.60;99.90;;;;;;5014003;28;20089;-79
2022/05/23 03:13:17;;;;;;;4.72;2.10;;;13.70;99.90;;;;;;5031680;28;20050;-80
2022/05/23 03:15:43;;;;;;;3.03;1.58;;;13.60;99.90;;;;;;5030460;28;20103;-79
2022/05/23 03:18:10;;;;;;;9.00;2.13;;;13.60;99.90;;;;;;5031540;28;20126;-80
2022/05/23 03:20:36;;;;;;;5.05;1.88;;;13.60;99.90;;;;;;5035281;28;20049;-79
2022/05/23 03:28:32;;;;;;;5.45;1.77;;;13.50;99.90;;;;;;5034480;28;20418;-79
2022/05/23 03:30:58;;;;;;;5.68;1.90;;;13.50;99.90;;;;;;5034503;28;20061;-79
2022/05/23 03:33:23;;;;;;;8.82;2.22;;;13.40;99.90;;;;;;5035493;28;20050;-79
2022/05/23 03:35:49;;;;;;;4.50;1.95;;;13.40;99.90;;;;;;5017508;28;20048;-79
2022/05/23 03:38:15;;;;;;;4.28;2.10;;;13.50;99.90;;;;;;5035385;28;20487;-79
2022/05/23 03:40:41;;;;;;;8.93;2.13;;;13.30;99.90;;;;;;5034687;28;20050;-80
2022/05/23 03:43:08;;;;;;;6.38;2.08;;;13.30;99.90;;;;;;5035272;28;20499;-79
2022/05/23 03:45:34;;;;;;;4.68;2.03;;;13.20;99.90;;;;;;5034061;28;20049;-80
2022/05/23 03:48:00;;;;;;;4.78;2.20;;;13.10;99.90;;;;;;5033865;28;20057;-79
2022/05/23 03:50:29;;;;;;;5.03;2.03;;;13.10;99.90;;;;;;5034221;28;20056;-79
2022/05/23 03:52:55;;;;;;;6.82;2.03;;;13.10;99.90;;;;;;5034875;28;20114;-79
2022/05/23 03:55:21;;;;;;;4.70;2.00;;;13.00;99.90;;;;;;5034717;28;20033;-80
2022/05/23 03:57:47;;;;;;;5.78;2.30;;;12.90;99.90;;;;;;5034667;28;20042;-79
2022/05/23 04:00:14;;;;;;;5.60;2.67;;;12.90;99.90;;;;;;5034874;28;20045;-80
2022/05/23 04:02:41;;;;;;;4.82;2.38;;;12.90;99.90;;;;;;5034944;28;20064;-79
2022/05/23 04:05:10;;;;;;;7.15;2.55;;;12.80;99.90;;;;;;5035149;28;20077;-80
2022/05/23 04:07:38;;;;;;;7.03;2.40;;;12.80;99.90;;;;;;5034577;28;20081;-79
2022/05/23 04:10:11;;;;;;;7.10;2.80;;;12.80;99.90;;;;;;5034811;28;20084;-80
2022/05/23 04:12:37;;;;;;;4.80;2.53;;;12.80;99.90;;;;;;5033340;28;20052;-80
2022/05/23 04:15:04;;;;;;;7.68;2.90;;;12.80;99.90;;;;;;5034375;28;20379;-79
2022/05/23 04:17:30;;;;;;;4.75;2.70;;;12.80;99.90;;;;;;5034642;28;20053;-79
2022/05/23 04:19:56;;;;;;;4.78;2.55;;;12.80;99.90;;;;;;5034737;28;20414;-79
2022/05/23 04:22:22;;;;;;;4.78;2.70;;;12.90;99.90;;;;;;5016186;28;20128;-80
2022/05/23 04:24:48;;;;;;;6.93;3.00;;;12.90;99.90;;;;;;5016888;28;20057;-79
2022/05/23 04:27:14;;;;;;;7.28;2.90;;;12.90;99.90;;;;;;5034492;28;20057;-79
2022/05/23 04:29:39;;;;;;;4.38;3.28;;;12.90;99.90;;;;;;5033313;28;20041;-80
2022/05/23 04:35:12;;;;;;;4.47;2.50;;;12.90;99.90;;;;;;5033440;28;20034;-80
2022/05/23 04:37:35;;;;;;;7.90;3.20;;;13.10;99.90;;;;;;5034313;28;20049;-79
2022/05/23 04:40:00;;;;;;;4.60;2.78;;;13.00;99.90;;;;;;5032938;28;20441;-80
2022/05/23 04:42:26;;;;;;;6.05;2.67;;;13.10;99.90;;;;;;5033923;28;20052;-79
2022/05/23 04:44:52;;;;;;;7.80;2.90;;;13.10;99.90;;;;;;5013469;28;20152;-79
2022/05/23 04:50:04;;;;;;;6.70;3.08;;;13.30;99.90;;;;;;5013433;28;20068;-80
2022/05/23 04:52:30;;;;;;;5.70;2.83;;;13.30;99.90;;;;;;5014348;28;20088;-79
2022/05/23 04:54:55;;;;;;;9.40;3.10;;;13.40;99.90;;;;;;5027328;28;20088;-79
2022/05/23 04:57:21;;;;;;;6.43;3.20;;;13.40;99.90;;;;;;5033778;28;20037;-79
2022/05/23 04:59:47;;;;;;;6.65;2.88;;;13.40;99.90;;;;;;5031999;28;20037;-79
2022/05/23 05:02:14;;;;;;;7.60;3.30;;;13.40;99.90;;;;;;5033602;28;20049;-79
2022/05/23 05:04:40;;;;;;;6.88;3.08;;;13.50;99.90;;;;;;5032858;28;20064;-80
2022/05/23 05:07:06;;;;;;;8.25;3.35;;;13.50;99.90;;;;;;5033937;28;20049;-79
2022/05/23 05:09:33;;;;;;;9.80;3.22;;;13.50;99.90;;;;;;5016019;28;20061;-79
2022/05/23 05:11:59;;;;;;;8.93;3.05;;;13.50;99.90;;;;;;5034180;28;20057;-79
2022/05/23 05:14:27;;;;;;;8.23;3.40;;;13.70;99.90;;;;;;5015815;28;20057;-79
2022/05/23 05:16:53;;;;;;;8.80;3.20;;;13.60;99.90;;;;;;5033456;28;20132;-79
2022/05/23 05:19:19;;;;;;;4.82;3.47;;;13.60;99.90;;;;;;5032464;28;20125;-80
2022/05/23 05:21:45;;;;;;;8.77;3.58;;;13.70;99.90;;;;;;5033345;28;20077;-81
2022/05/23 05:24:11;;;;;;;6.65;3.38;;;13.90;99.90;;;;;;5033253;28;20128;-84
2022/05/23 05:26:37;;;;;;;7.30;3.30;;;13.90;99.90;;;;;;5033804;28;20132;-79
2022/05/23 05:29:03;;;;;;;5.55;3.47;;;14.00;99.90;;;;;;5015713;28;20139;-79
2022/05/23 05:31:48;;;;;;;10.15;3.75;;;14.20;99.90;;;;;;5033064;28;20132;-80
2022/05/23 05:34:25;;;;;;;6.45;3.58;;;14.40;99.90;;;;;;5032511;28;20038;-79
2022/05/23 05:36:59;;;;;;;8.45;3.20;;;14.60;99.90;;;;;;5032793;28;20403;-80
2022/05/23 05:39:27;;;;;;;9.98;3.83;;;14.70;99.90;;;;;;5031792;28;20045;-79
2022/05/23 05:42:23;;;;;;;5.18;3.20;;;14.90;99.90;;;;;;5031824;28;20061;-79
2022/05/23 05:44:54;;;;;;;6.53;3.53;;;15.00;99.90;;;;;;5027912;28;20414;-80
2022/05/23 05:47:21;;;;;;;4.60;3.40;;;15.10;99.90;;;;;;5013237;28;20381;-80
2022/05/23 05:49:50;;;;;;;7.78;3.67;;;15.20;99.90;;;;;;5012374;28;20069;-79
2022/05/23 05:52:21;;;;;;;6.68;3.67;;;15.20;99.90;;;;;;5013399;28;20053;-84
2022/05/23 05:54:47;;;;;;;8.23;3.75;;;15.20;99.90;;;;;;5013422;28;20052;-80
2022/05/23 05:57:14;;;;;;;7.50;3.28;;;15.30;99.90;;;;;;5012556;28;20038;-80
2022/05/23 05:59:40;;;;;;;8.13;3.53;;;15.30;99.90;;;;;;5013194;28;20050;-80
2022/05/23 06:02:07;;;;;;;6.25;3.50;;;15.40;99.90;;;;;;5013153;28;20046;-79
2022/05/23 06:04:37;;;;;;;6.90;3.45;;;15.50;99.90;;;;;;5013373;28;20396;-79
2022/05/23 06:12:32;;;;;;;6.85;3.63;;;15.90;99.90;;;;;;5013272;28;20054;-81
2022/05/23 06:14:58;;;;;;;8.38;3.40;;;16.20;99.90;;;;;;5012161;28;20464;-78
2022/05/23 06:17:24;;;;;;;5.93;3.28;;;16.40;99.90;;;;;;5013356;28;20491;-79
2022/05/23 06:19:50;;;;;;;5.82;3.28;;;16.60;99.90;;;;;;5013306;28;20403;-80
2022/05/23 06:22:17;;;;;;;7.85;3.80;;;16.90;99.90;;;;;;5045322;28;20454;-80
2022/05/23 06:24:44;;;;;;;12.20;3.75;;;17.00;99.90;;;;;;5013084;28;20042;-80
2022/05/23 06:27:11;;;;;;;8.52;3.78;;;17.20;99.90;;;;;;5013417;28;20049;-80
2022/05/23 06:29:38;;;;;;;8.35;3.38;;;17.30;99.90;;;;;;5013242;28;20046;-80
2022/05/23 06:32:04;;;;;;;5.97;3.35;;;17.40;99.90;;;;;;5012243;28;20558;-80
2022/05/23 06:34:30;;;;;;;7.05;3.15;;;17.60;99.90;;;;;;5013256;28;20136;-80
2022/05/23 06:36:57;;;;;;;6.38;3.22;;;17.90;99.90;;;;;;5013188;28;20053;-80
2022/05/23 06:39:23;;;;;;;9.10;3.35;;;18.30;99.90;;;;;;5013874;28;20522;-79
2022/05/23 06:41:49;;;;;;;8.43;3.72;;;18.70;99.90;;;;;;5045699;28;20391;-80
2022/05/23 06:44:15;;;;;;;9.93;3.30;;;19.00;99.90;;;;;;5013332;28;20041;-80
2022/05/23 06:46:41;;;;;;;8.95;3.50;;;19.20;99.90;;;;;;5046321;28;20049;-79
2022/05/23 06:49:07;;;;;;;11.30;3.40;;;19.30;99.90;;;;;;5013155;28;20136;-79
2022/05/23 06:51:34;;;;;;;6.78;3.40;;;19.40;99.90;;;;;;5044682;28;20133;-80
2022/05/23 06:54:00;;;;;;;7.32;3.40;;;19.60;99.90;;;;;;5012888;28;20081;-79
2022/05/23 06:56:28;;;;;;;9.82;3.72;;;19.70;99.90;;;;;;5016618;28;20080;-79
2022/05/23 06:58:54;;;;;;;7.70;3.22;;;19.90;99.90;;;;;;5016434;28;20052;-79
2022/05/23 07:01:20;;;;;;;6.95;3.05;;;20.10;99.90;;;;;;5015704;28;20507;-80
2022/05/23 07:03:46;;;;;;;8.00;3.30;;;20.40;99.90;;;;;;5016707;28;20057;-79
2022/05/23 07:14:42;;;;;;;8.73;3.80;;;21.80;94.90;;;;;;5014115;28;20419;-81
2022/05/23 07:17:08;;;;;;;4.97;3.20;;;21.90;93.00;;;;;;5014137;28;20061;-80
2022/05/23 07:19:37;;;;;;;4.40;3.08;;;21.90;92.00;;;;;;4997531;28;20057;-83
2022/05/23 07:22:03;;;;;;;8.93;3.30;;;21.80;92.30;;;;;;5013855;28;20646;-81
2022/05/23 07:24:31;;;;;;;5.47;3.22;;;21.80;92.10;;;;;;5014029;28;20128;-80
2022/05/23 07:27:00;;;;;;;8.57;3.47;;;21.90;93.80;;;;;;4997785;28;20104;-80
2022/05/23 07:29:26;;;;;;;5.43;3.75;;;22.00;92.40;;;;;;5013730;28;20077;-80
2022/05/23 07:31:52;;;;;;;8.05;3.05;;;22.30;93.00;;;;;;5013928;28;20050;-80
2022/05/23 07:34:18;;;;;;;5.95;3.20;;;22.70;88.60;;;;;;5013683;28;20503;-81
2022/05/23 07:36:45;;;;;;;6.60;3.78;;;23.00;84.60;;;;;;5013599;28;20200;-82
2022/05/23 07:39:12;;;;;;;5.75;3.25;;;23.30;80.50;;;;;;4997609;28;20054;-87
2022/05/23 07:41:39;;;;;;;5.45;3.13;;;23.50;77.60;;;;;;4997523;28;20058;-81
2022/05/23 07:44:07;;;;;;;5.15;3.20;;;23.80;76.80;;;;;;5013787;28;20064;-80
2022/05/23 07:46:34;;;;;;;5.68;2.88;;;24.30;73.10;;;;;;4997296;28;20132;-81
2022/05/23 07:49:00;;;;;;;9.90;3.53;;;24.80;69.80;;;;;;5006948;28;20054;-82
2022/05/23 07:51:30;;;;;;;7.63;3.42;;;25.30;66.30;;;;;;5015889;28;20060;-81
2022/05/23 08:02:15;;;;;;;8.68;3.20;;;25.80;62.40;;;;;;5015610;28;20064;-81
2022/05/23 08:04:41;;;;;;;7.53;2.97;;;25.80;62.50;;;;;;5047672;28;20457;-81
2022/05/23 08:07:09;;;;;;;8.85;3.17;;;25.70;61.80;;;;;;5015525;28;20048;-83
2022/05/23 08:09:35;;;;;;;6.20;3.13;;;25.70;61.50;;;;;;5015360;28;20089;-81
2022/05/23 08:12:03;;;;;;;7.75;3.22;;;25.60;60.70;;;;;;5015188;28;20468;-81
2022/05/23 08:14:29;;;;;;;5.85;3.10;;;25.60;62.50;;;;;;5013932;28;20085;-81
2022/05/23 08:16:55;;;;;;;5.40;3.40;;;25.70;60.50;;;;;;5015163;28;20050;-82
2022/05/23 08:19:20;;;;;;;6.53;3.30;;;25.90;59.40;;;;;;5014407;28;20077;-82
2022/05/23 08:21:53;;;;;;;7.80;3.38;;;26.00;59.20;;;;;;5015279;28;20045;-83
2022/05/23 08:24:20;;;;;;;5.70;3.15;;;26.30;57.50;;;;;;5015232;28;20368;-82
2022/05/23 08:26:46;;;;;;;6.30;3.05;;;26.40;58.70;;;;;;5014978;28;20048;-82
2022/05/23 08:29:12;;;;;;;5.18;3.25;;;26.70;59.60;;;;;;4997669;28;20108;-81
2022/05/23 08:31:39;;;;;;;5.88;3.30;;;27.10;58.00;;;;;;5014985;28;20042;-81
2022/05/23 08:34:05;;;;;;;6.65;3.05;;;27.60;57.10;;;;;;5015000;28;20049;-83
2022/05/23 08:36:32;;;;;;;5.10;3.55;;;28.10;54.60;;;;;;5013750;28;20132;-82
2022/05/23 08:38:58;;;;;;;8.48;3.83;;;28.40;53.60;;;;;;5047186;28;20057;-81
2022/05/23 08:41:40;;;;;;;5.57;3.10;;;28.50;53.00;;;;;;5015026;28;20038;-81
2022/05/23 08:44:16;;;;;;;6.22;3.67;;;28.90;53.40;;;;;;4997763;28;20054;-82
2022/05/23 08:47:03;;;;;;;5.30;3.30;;;29.40;52.00;;;;;;5014896;28;20057;-81
2022/05/23 08:49:58;;;;;;;8.10;3.40;;;29.60;51.80;;;;;;5014638;28;20034;-81
2022/05/23 08:52:42;;;;;;;7.18;3.00;;;29.60;50.60;;;;;;5014613;28;20046;-81
2022/05/23 08:55:30;;;;;;;6.43;3.47;;;29.80;48.90;;;;;;5029824;28;20081;-82
2022/05/23 08:58:41;;;;;;;5.50;3.35;;;29.90;48.90;;;;;;5013400;28;20045;-81
2022/05/23 09:01:16;;;;;;;6.13;3.20;;;30.00;49.10;;;;;;5046476;28;20407;-81
2022/05/23 09:03:46;;;;;;;6.38;3.15;;;30.30;48.50;;;;;;5013731;28;20188;-81
2022/05/23 09:06:18;;;;;;;9.13;3.42;;;30.40;48.50;;;;;;5014424;28;20054;-82
2022/05/23 09:08:51;;;;;;;6.50;3.35;;;30.60;48.70;;;;;;5014145;28;20103;-82
2022/05/23 09:11:40;;;;;;;7.03;3.67;;;30.80;48.00;;;;;;5014208;28;20072;-82
2022/05/23 09:14:10;;;;;;;4.18;2.60;;;30.50;47.70;;;;;;5014067;28;20395;-82
2022/05/23 09:16:41;;;;;;;;;;;30.10;48.80;;;;;;5013175;28;20050;-81
2022/05/23 09:19:27;;;;;;;;;;;29.60;48.40;;;;;;5014456;28;20371;-81
2022/05/23 09:22:14;;;;;;;8.10;2.83;;;29.00;50.70;;;;;;5013834;28;20384;-81
2022/05/23 09:24:57;;;;;;;7.32;3.17;;;28.50;53.40;;;;;;4996735;28;20484;-81
2022/05/23 09:27:35;;;;;;;7.45;2.80;;;28.20;52.30;;;;;;5046279;28;20408;-81
2022/05/23 09:30:03;;;;;;;5.57;2.50;;;28.20;52.90;;;;;;5013925;28;20116;-81
2022/05/23 09:32:36;;;;;;;5.47;2.70;;;28.00;53.10;;;;;;5013559;28;20532;-82
2022/05/23 09:35:15;;;;;;;7.22;2.90;;;27.60;52.70;;;;;;5045831;28;20081;-81
2022/05/23 09:37:46;;;;;;;6.00;2.30;;;27.20;54.00;;;;;;5013939;28;20127;-82
2022/05/23 09:40:32;;;;;;;7.10;2.63;;;26.80;54.50;;;;;;5013538;28;20054;-86
2022/05/23 09:49:11;;;;;;;4.15;2.33;;;27.60;54.20;;;;;;5013583;28;20191;-81
2022/05/23 09:52:18;;;;;;;7.15;2.35;;;28.00;52.10;;;;;;5014001;28;20120;-80
2022/05/23 09:54:58;;;;;;;3.95;1.85;;;28.00;51.50;;;;;;5048012;28;20403;-81
2022/05/23 09:57:39;;;;;;;8.25;1.80;;;28.20;51.70;;;;;;5031929;28;20057;-80
2022/05/23 10:00:10;;;;;;;3.22;1.45;;;28.70;49.20;;;;;;5034939;28;20119;-82
2022/05/23 10:02:47;;;;;;;4.15;1.77;;;29.40;46.90;;;;;;5032743;28;20045;-82
2022/05/23 10:05:26;;;;;;;4.63;1.80;;;29.80;47.10;;;;;;5031934;28;20503;-82
2022/05/23 10:07:59;;;;;;;4.93;1.70;;;30.00;47.40;;;;;;5032709;28;20103;-81
2022/05/23 10:10:28;;;;;;;4.80;1.75;;;30.10;46.50;;;;;;5031132;28;20049;-81
2022/05/23 10:13:25;;;;;;;5.93;1.88;;;30.40;46.50;;;;;;5014228;28;20056;-82
2022/05/23 10:15:58;;;;;;;5.13;2.20;;;30.70;43.80;;;;;;5030952;28;20045;-82
2022/05/23 10:18:32;;;;;;;3.88;1.77;;;30.70;45.40;;;;;;5047108;28;20498;-81
2022/05/23 10:21:00;;;;;;;4.13;2.00;;;30.60;44.90;;;;;;5014790;28;20510;-82
2022/05/23 10:23:33;;;;;;;6.30;2.03;;;30.70;45.00;;;;;;5030564;28;20049;-81
2022/05/23 10:26:13;;;;;;;3.42;1.70;;;30.70;44.40;;;;;;5011763;28;20056;-82
2022/05/23 10:29:03;;;;;;;2.80;1.52;;;30.90;44.50;;;;;;5011872;28;20069;-86
2022/05/23 10:31:40;;;;;;;3.58;1.88;;;31.60;43.40;;;;;;5012187;28;20085;-81
2022/05/23 10:34:41;;;;;;;6.53;1.60;;;32.00;43.10;;;;;;5012895;28;20046;-82
2022/05/23 10:37:18;;;;;;;5.78;1.67;;;31.90;41.30;;;;;;5011858;28;20124;-84
2022/05/23 10:42:28;;;;;;;4.22;1.83;;;31.10;43.80;;;;;;5013327;28;20053;-81
2022/05/23 10:45:21;;;;;;;4.70;2.00;;;31.50;42.90;;;;;;5012636;28;20487;-82
2022/05/23 10:48:05;;;;;;;6.68;1.65;;;31.70;41.80;;;;;;5012511;28;20041;-82
2022/05/23 10:50:48;;;;;;;5.53;2.20;;;32.20;42.20;;;;;;5012874;28;20407;-81
2022/05/23 10:53:37;;;;;;;2.92;1.80;;;33.30;41.50;;;;;;4996576;28;20395;-82
2022/05/23 10:56:30;;;;;;;3.65;1.65;;;34.20;39.60;;;;;;5011209;28;20509;-82
2022/05/23 10:58:59;;;;;;;3.88;1.67;;;34.50;39.60;;;;;;5011659;28;20046;-82
2022/05/23 11:01:49;;;;;;;5.10;1.67;;;34.70;38.50;;;;;;5011733;28;20042;-82
2022/05/23 11:04:59;;;;;;;4.97;1.90;;;34.80;37.90;;;;;;5011696;28;20099;-82
2022/05/23 11:07:46;;;;;;;4.93;1.75;;;34.70;39.00;;;;;;5029923;28;20049;-82
2022/05/23 11:10:50;;;;;;;3.72;1.50;;;34.90;38.60;;;;;;5030575;28;20426;-81
2022/05/23 11:13:49;;;;;;;3.28;1.88;;;34.90;37.00;;;;;;5030117;28;20053;-82
2022/05/23 11:16:43;;;;;;;3.72;1.88;;;34.10;37.80;;;;;;5046904;28;20072;-81
2022/05/23 11:19:22;;;;;;;5.10;2.05;;;33.50;38.70;;;;;;5029644;28;20145;-82
2022/05/23 11:22:04;;;;;;;4.95;1.70;;;32.60;39.60;;;;;;5013753;28;20060;-82
2022/05/23 11:24:42;;;;;;;4.70;2.30;;;32.00;41.10;;;;;;5046799;28;20088;-82
2022/05/23 11:35:55;;;;;;;6.53;2.00;;;31.70;42.40;;;;;;4990270;28;20050;-82
2022/05/23 11:38:21;;;;;;;5.80;2.30;;;31.60;42.70;;;;;;4990379;28;20094;-84
2022/05/23 11:41:00;;;;;;;3.85;2.22;;;32.10;42.90;;;;;;4976760;28;20058;-82
2022/05/23 11:43:27;;;;;;;5.78;2.40;;;32.60;42.20;;;;;;4994039;28;20133;-81
2022/05/23 11:45:57;;;;;;;4.97;1.83;;;33.00;40.90;;;;;;4978024;28;20049;-82
2022/05/23 11:48:39;;;;;;;2.53;1.73;;;33.20;40.30;;;;;;4977779;28;20393;-84
2022/05/23 11:51:23;;;;;;;3.88;1.60;;;33.20;39.80;;;;;;4978040;28;20050;-81
2022/05/23 11:54:00;;;;;;;3.10;1.38;;;32.60;40.30;;;;;;4978077;28;20061;-82
2022/05/23 11:56:44;;;;;;;4.07;1.50;;;31.40;41.20;;;;;;4993975;28;20050;-81
2022/05/23 11:59:31;;;;;;;6.75;1.70;;;30.20;43.20;;;;;;4994043;28;20046;-81
2022/05/23 12:02:12;;;;;;;3.63;1.73;;;29.10;44.30;;;;;;4977512;28;20057;-81
2022/05/23 12:04:43;;;;;;;3.97;2.30;;;28.20;46.30;;;;;;4993864;28;20121;-82
2022/05/23 12:07:39;;;;;;;2.58;1.75;;;27.70;47.70;;;;;;5006135;28;20145;-81
2022/05/23 12:10:24;;;;;;;2.70;1.80;;;27.40;50.20;;;;;;5015611;28;20058;-82
2022/05/23 12:12:55;;;;;;;4.57;2.20;;;27.10;51.50;;;;;;5015430;28;20050;-81
2022/05/23 12:15:43;;;;;;;5.95;2.55;;;26.90;51.10;;;;;;5014186;28;20042;-81
2022/05/23 12:18:24;;;;;;;3.72;2.28;;;26.80;52.70;;;;;;5015510;28;20061;-81
2022/05/23 12:20:52;;;;;;;6.45;3.00;;;26.80;52.90;;;;;;5015256;28;20058;-83
2022/05/23 12:23:36;;;;;;;5.07;3.20;;;26.70;53.30;;;;;;5047379;28;20129;-82
2022/05/23 12:26:26;;;;;;;4.97;2.45;;;26.70;55.00;;;;;;5015084;28;20525;-82
2022/05/23 12:29:00;;;;;;;8.52;3.15;;;26.60;56.10;;;;;;5014359;28;20074;-81
2022/05/23 12:31:30;;;;;;;4.78;3.10;;;26.50;55.70;;;;;;5047054;28;20112;-81
2022/05/23 12:34:07;;;;;;;7.78;3.00;;;26.50;55.80;;;;;;5014899;28;20124;-82
2022/05/23 12:36:51;;;;;;;6.57;3.28;;;26.30;58.10;;;;;;5046975;28;20107;-82
2022/05/23 12:39:54;;;;;;;6.30;3.50;;;26.10;59.90;;;;;;5015123;28;20046;-80
2022/05/23 12:42:42;;;;;;;5.53;4.13;;;25.90;59.90;;;;;;5046912;28;20510;-81
2022/05/23 12:45:46;;;;;;;6.95;3.67;;;25.60;64.40;;;;;;5014664;28;20399;-82
2022/05/23 12:48:28;;;;;;;17.88;4.47;;;25.30;66.40;;;;;;5014855;28;20136;-81
2022/05/23 12:51:20;;;;;;;7.93;4.82;;;24.90;70.20;;;;;;5014151;28;20092;-81
2022/05/23 12:54:08;;;;;;;8.90;4.85;;;24.40;74.90;;;;;;5014438;28;20054;-81
2022/05/23 12:56:42;;;;;;;8.95;4.40;;;24.10;80.40;;;;;;5013653;28;20100;-81
2022/05/23 12:59:32;;;;;;;7.32;4.60;;;24.00;78.00;;;;;;5046778;28;20196;-80
2022/05/23 13:02:07;;;;;;;8.45;4.22;;;24.10;78.20;;;;;;5013141;28;20057;-81
2022/05/23 13:04:40;;;;;;;5.63;4.25;;;24.20;74.10;;;;;;5014557;28;20053;-81
2022/05/23 13:07:12;;;;;;;7.15;4.10;;;24.20;74.00;;;;;;5014477;28;20057;-80
2022/05/23 13:09:50;;;;;;;11.40;4.50;;;24.30;76.80;;;;;;5014221;28;20503;-81
2022/05/23 13:12:29;;;;;;;8.52;4.20;;;24.40;76.00;;;;;;5013947;28;20479;-80
2022/05/23 13:14:57;;;;;;;7.00;4.28;;;24.50;80.20;;;;;;5046118;28;20457;-81
2022/05/23 13:17:32;;;;;;;8.65;4.13;;;24.50;84.30;;;;;;5012936;28;20054;-81
2022/05/23 13:22:42;;;;;;;7.25;4.50;;;24.70;83.60;;;;;;5014122;28;20435;-80
2022/05/23 13:25:07;;;;;;;8.43;4.80;;;24.70;78.90;;;;;;5013864;28;20042;-81
2022/05/23 13:27:49;;;;;;;7.55;4.40;;;24.70;76.60;;;;;;5014203;28;20046;-80
2022/05/23 13:30:17;;;;;;;10.98;4.55;;;24.80;77.60;;;;;;5012846;28;20046;-81
2022/05/23 13:32:44;;;;;;;6.90;4.47;;;25.00;72.70;;;;;;5014039;28;20056;-81
2022/05/23 13:35:29;;;;;;;7.53;4.35;;;25.00;70.10;;;;;;5014341;28;20061;-80
2022/05/23 13:37:54;;;;;;;7.72;4.72;;;25.30;74.40;;;;;;5014429;28;20046;-78
2022/05/23 13:40:29;;;;;;;5.88;4.38;;;25.50;71.00;;;;;;5046117;28;20053;-81
2022/05/23 13:43:23;;;;;;;6.07;4.20;;;25.70;71.70;;;;;;5014444;28;20057;-81
2022/05/23 13:46:15;;;;;;;8.93;4.63;;;26.10;69.30;;;;;;5012855;28;20058;-81
2022/05/23 13:49:00;;;;;;;9.07;5.50;;;26.30;66.20;;;;;;5013006;28;20115;-81
2022/05/23 13:51:46;;;;;;;6.10;4.18;;;26.60;68.30;;;;;;5013819;28;20041;-80
2022/05/23 13:54:22;;;;;;;6.70;4.00;;;26.90;65.10;;;;;;5015673;28;20088;-81
2022/05/23 13:56:56;;;;;;;8.88;4.45;;;27.00;65.20;;;;;;5015207;28;20057;-81
2022/05/23 13:59:26;;;;;;;6.10;3.97;;;27.30;63.80;;;;;;5014915;28;20132;-81
2022/05/23 14:01:59;;;;;;;7.30;4.30;;;27.50;64.90;;;;;;5013428;28;20062;-81
2022/05/23 14:04:28;;;;;;;5.90;3.90;;;27.40;62.70;;;;;;5045373;28;20057;-86
2022/05/23 14:07:03;;;;;;;6.68;3.80;;;27.20;63.40;;;;;;5013254;28;20402;-81
2022/05/23 14:09:30;;;;;;;9.45;4.13;;;26.90;65.50;;;;;;5013338;28;20056;-81
2022/05/23 14:12:04;;;;;;;11.07;3.60;;;26.60;65.60;;;;;;5020846;28;20057;-81
2022/05/23 14:14:39;;;;;;;5.80;3.47;;;26.20;70.30;;;;;;5014469;28;20037;-83
2022/05/23 14:17:20;;;;;;;8.43;3.50;;;25.90;71.20;;;;;;5032308;28;20864;-80